Time;durP1;ratioP1;P1;durP2;ratioP2;P2;SDS_P1;SDS_P2;PMS_P1;PMS_P2;Temp;Humidity;BMP_temperature;BMP_pressure;BME280_temperature;BME280_humidity;BME280_pressure;Samples;Min_cycle;Max_cycle;Signal;HPM_P1;HPM_P2
2021/12/23 00:00:36;;;;;;;45.43;25.80;;;-3.00;91.50;;;;;;5021944;28;20585;-89
2021/12/23 00:03:03;;;;;;;44.67;23.23;;;-3.00;91.60;;;;;;5040765;28;20181;-89
2021/12/23 00:05:29;;;;;;;41.47;25.23;;;-3.00;91.60;;;;;;5022441;28;20178;-89
2021/12/23 00:07:54;;;;;;;45.07;24.40;;;-3.00;91.60;;;;;;5039033;28;20307;-89
2021/12/23 00:10:20;;;;;;;40.40;22.60;;;-3.00;91.70;;;;;;5039793;28;20168;-89
2021/12/23 00:12:46;;;;;;;40.97;23.87;;;-3.00;91.80;;;;;;5039894;28;20181;-89
2021/12/23 00:15:23;;;;;;;44.40;24.53;;;-3.00;91.90;;;;;;5039716;28;20567;-89
2021/12/23 00:17:56;;;;;;;42.27;23.93;;;-3.00;91.90;;;;;;5022946;28;20253;-89
2021/12/23 00:25:35;;;;;;;41.37;23.00;;;-2.90;92.10;;;;;;5038296;28;20265;-89
2021/12/23 00:28:01;;;;;;;43.07;24.23;;;-2.90;92.10;;;;;;5037724;28;20656;-90
2021/12/23 00:30:27;;;;;;;43.53;24.70;;;-2.80;92.10;;;;;;5040284;28;20180;-89
2021/12/23 00:32:56;;;;;;;39.57;23.07;;;-2.80;92.10;;;;;;5041143;28;20170;-87
2021/12/23 00:35:22;;;;;;;41.40;23.90;;;-2.80;92.10;;;;;;5041526;28;20637;-89
2021/12/23 00:37:50;;;;;;;39.83;23.57;;;-2.80;92.10;;;;;;5041399;28;20193;-89
2021/12/23 00:40:19;;;;;;;45.47;24.33;;;-2.80;92.10;;;;;;5023666;28;20174;-89
2021/12/23 00:42:44;;;;;;;45.37;23.93;;;-2.80;92.10;;;;;;5023594;28;20202;-89
2021/12/23 00:45:10;;;;;;;45.10;25.10;;;-2.80;92.10;;;;;;5040921;28;20681;-88
2021/12/23 00:47:36;;;;;;;42.13;23.63;;;-2.80;92.10;;;;;;5023196;28;20175;-88
2021/12/23 00:50:02;;;;;;;42.30;22.43;;;-2.80;92.10;;;;;;5040021;28;20293;-89
2021/12/23 00:52:32;;;;;;;41.63;23.67;;;-2.80;92.10;;;;;;5040192;28;20665;-88
2021/12/23 00:54:58;;;;;;;42.77;24.73;;;-2.80;92.20;;;;;;5040128;28;20232;-88
2021/12/23 00:57:30;;;;;;;43.37;25.17;;;-2.80;92.20;;;;;;5022480;28;20180;-88
2021/12/23 00:59:57;;;;;;;43.73;25.53;;;-2.70;92.20;;;;;;5022236;28;20169;-88
2021/12/23 01:02:26;;;;;;;42.40;24.93;;;-2.80;92.10;;;;;;5022081;28;20178;-89
2021/12/23 01:04:52;;;;;;;43.67;23.30;;;-2.80;92.10;;;;;;5023170;28;20196;-89
2021/12/23 01:07:18;;;;;;;40.33;24.30;;;-2.80;92.20;;;;;;5022703;28;20260;-89
2021/12/23 01:09:43;;;;;;;43.47;24.67;;;-2.70;92.20;;;;;;5040443;28;20200;-89
2021/12/23 01:12:14;;;;;;;40.93;24.37;;;-2.80;92.20;;;;;;5040375;28;20196;-89
2021/12/23 01:14:52;;;;;;;45.50;24.73;;;-2.80;92.20;;;;;;5022546;28;20195;-88
2021/12/23 01:19:49;;;;;;;43.20;24.23;;;-2.70;92.30;;;;;;5039682;28;20260;-88
2021/12/23 01:22:15;;;;;;;40.47;24.07;;;-2.80;92.30;;;;;;5022784;28;20214;-89
2021/12/23 01:24:41;;;;;;;39.80;23.77;;;-2.70;92.30;;;;;;5040515;28;20199;-88
2021/12/23 01:27:06;;;;;;;40.07;24.23;;;-2.70;92.40;;;;;;5022667;28;20184;-88
2021/12/23 01:29:32;;;;;;;45.63;25.97;;;-2.60;92.40;;;;;;5024005;28;20203;-88
2021/12/23 01:32:00;;;;;;;36.23;22.47;;;-2.60;92.40;;;;;;5022907;28;20176;-88
2021/12/23 01:34:26;;;;;;;37.53;22.73;;;-2.60;92.30;;;;;;5040732;28;20189;-88
2021/12/23 01:36:51;;;;;;;37.13;23.60;;;-2.60;92.30;;;;;;5041728;28;20170;-88
2021/12/23 01:39:17;;;;;;;35.30;22.80;;;-2.60;92.30;;;;;;5041027;28;20172;-89
2021/12/23 01:41:43;;;;;;;40.77;23.57;;;-2.60;92.30;;;;;;5024961;28;20200;-88
2021/12/23 01:44:09;;;;;;;41.17;24.63;;;-2.50;92.30;;;;;;5042560;28;20195;-88
2021/12/23 01:46:34;;;;;;;41.10;23.47;;;-2.50;92.30;;;;;;5039431;28;20209;-88
2021/12/23 01:49:00;;;;;;;40.50;25.50;;;-2.50;92.30;;;;;;5039303;28;20565;-88
2021/12/23 01:51:25;;;;;;;40.33;23.80;;;-2.50;92.30;;;;;;5022009;28;20208;-88
2021/12/23 01:53:51;;;;;;;39.43;23.80;;;-2.60;92.40;;;;;;5038860;28;20793;-88
2021/12/23 01:56:17;;;;;;;42.40;23.53;;;-2.50;92.40;;;;;;5021409;28;20173;-88
2021/12/23 01:58:43;;;;;;;43.43;23.80;;;-2.50;92.40;;;;;;5021035;28;20177;-88
2021/12/23 02:01:10;;;;;;;40.90;25.20;;;-2.40;92.40;;;;;;5021261;28;20187;-88
2021/12/23 02:03:37;;;;;;;40.07;23.27;;;-2.40;92.40;;;;;;5022717;28;20198;-89
2021/12/23 02:06:03;;;;;;;43.00;25.87;;;-2.40;92.30;;;;;;5040670;28;20547;-88
2021/12/23 02:08:28;;;;;;;41.13;23.80;;;-2.50;92.40;;;;;;5023351;28;20206;-89
2021/12/23 02:10:55;;;;;;;41.47;24.60;;;-2.40;92.40;;;;;;5041333;28;20170;-89
2021/12/23 02:13:21;;;;;;;41.10;23.70;;;-2.50;92.30;;;;;;5040956;28;20214;-89
2021/12/23 02:15:47;;;;;;;45.93;25.17;;;-2.40;92.40;;;;;;5040396;28;20166;-89
2021/12/23 02:18:13;;;;;;;42.40;24.43;;;-2.30;92.40;;;;;;5040775;28;20197;-89
2021/12/23 02:20:39;;;;;;;41.73;23.63;;;-2.30;92.40;;;;;;5040566;28;20186;-89
2021/12/23 02:23:07;;;;;;;43.63;26.17;;;-2.30;92.50;;;;;;5040780;28;20185;-88
2021/12/23 02:25:33;;;;;;;43.47;24.07;;;-2.30;92.40;;;;;;5040450;28;20629;-89
2021/12/23 02:28:04;;;;;;;41.70;22.90;;;-2.20;92.40;;;;;;5040430;28;20203;-89
2021/12/23 02:30:30;;;;;;;43.83;24.73;;;-2.20;92.40;;;;;;5022091;28;20210;-89
2021/12/23 02:32:57;;;;;;;39.17;23.80;;;-2.30;92.40;;;;;;5039474;28;20170;-88
2021/12/23 02:35:24;;;;;;;40.80;24.17;;;-2.20;92.40;;;;;;5021762;28;20208;-89
2021/12/23 02:37:50;;;;;;;40.13;24.17;;;-2.20;92.40;;;;;;5039755;28;20208;-89
2021/12/23 02:40:29;;;;;;;43.30;24.20;;;-2.20;92.40;;;;;;5039922;28;20219;-89
2021/12/23 02:42:57;;;;;;;39.13;24.73;;;-2.20;92.40;;;;;;5039532;28;20160;-88
2021/12/23 02:45:23;;;;;;;42.83;26.17;;;-2.30;92.40;;;;;;5021716;28;20209;-89
2021/12/23 02:47:49;;;;;;;38.97;24.43;;;-2.30;92.40;;;;;;5022503;28;20180;-89
2021/12/23 02:50:15;;;;;;;39.60;25.77;;;-2.30;92.40;;;;;;5039334;28;20225;-89
2021/12/23 02:52:40;;;;;;;41.43;24.73;;;-2.20;92.50;;;;;;5038296;28;20262;-89
2021/12/23 02:55:06;;;;;;;38.73;23.73;;;-2.20;92.40;;;;;;5040306;28;20645;-89
2021/12/23 02:57:33;;;;;;;41.37;24.80;;;-2.20;92.50;;;;;;5040088;28;20201;-89
2021/12/23 02:59:59;;;;;;;42.10;24.67;;;-2.10;92.40;;;;;;5039744;28;20263;-89
2021/12/23 03:02:25;;;;;;;41.50;25.27;;;-2.10;92.50;;;;;;5039958;28;20607;-89
2021/12/23 03:04:51;;;;;;;42.43;24.80;;;-2.10;92.40;;;;;;5021624;28;20233;-89
2021/12/23 03:07:17;;;;;;;38.03;22.83;;;-2.10;92.40;;;;;;5039769;28;20636;-89
2021/12/23 03:09:47;;;;;;;43.03;25.13;;;-2.10;92.30;;;;;;5039255;28;20674;-89
2021/12/23 03:12:13;;;;;;;36.23;23.03;;;-2.10;92.30;;;;;;5039135;28;20183;-89
2021/12/23 03:14:39;;;;;;;39.10;23.53;;;-2.20;92.30;;;;;;5039025;28;20566;-89
2021/12/23 03:17:05;;;;;;;38.50;23.10;;;-2.20;92.30;;;;;;5021026;28;20179;-89
2021/12/23 03:19:31;;;;;;;41.13;24.37;;;-2.10;92.40;;;;;;5020815;28;20187;-89
2021/12/23 03:21:57;;;;;;;38.23;23.43;;;-2.10;92.40;;;;;;5038322;28;20256;-89
2021/12/23 03:24:22;;;;;;;43.83;24.53;;;-2.10;92.40;;;;;;5021447;28;20211;-89
2021/12/23 03:26:48;;;;;;;44.47;24.43;;;-2.20;92.30;;;;;;5038148;28;20205;-89
2021/12/23 03:29:14;;;;;;;45.10;25.33;;;-2.20;92.40;;;;;;5039734;28;20198;-89
2021/12/23 03:31:40;;;;;;;39.10;22.83;;;-2.10;92.40;;;;;;5039769;28;20520;-89
2021/12/23 03:34:06;;;;;;;45.63;25.50;;;-2.00;92.50;;;;;;5038480;28;20796;-89
2021/12/23 03:36:32;;;;;;;37.07;22.47;;;-2.00;92.40;;;;;;5021008;28;20267;-89
2021/12/23 03:38:58;;;;;;;45.07;24.57;;;-2.00;92.40;;;;;;5021302;28;20182;-89
2021/12/23 03:41:23;;;;;;;39.13;23.50;;;-2.10;92.30;;;;;;5039144;28;20190;-89
2021/12/23 03:43:50;;;;;;;41.17;23.40;;;-2.00;92.40;;;;;;5039260;28;20230;-89
2021/12/23 03:46:16;;;;;;;41.83;23.40;;;-2.00;92.40;;;;;;5038932;28;20179;-89
2021/12/23 03:48:42;;;;;;;40.93;23.47;;;-2.00;92.30;;;;;;5020512;28;20586;-89
2021/12/23 03:51:07;;;;;;;41.60;22.90;;;-2.00;92.30;;;;;;5020690;28;20705;-89
2021/12/23 03:53:33;;;;;;;39.47;24.07;;;-2.00;92.30;;;;;;5037242;28;20659;-89
2021/12/23 03:56:00;;;;;;;41.43;23.10;;;-2.10;92.30;;;;;;5016509;28;20197;-89
2021/12/23 03:58:26;;;;;;;39.90;23.27;;;-2.00;92.30;;;;;;5016051;28;20176;-89
2021/12/23 04:00:52;;;;;;;40.77;24.97;;;-2.00;92.30;;;;;;5015818;28;20269;-89
2021/12/23 04:03:18;;;;;;;36.73;23.90;;;-2.00;92.30;;;;;;5015523;28;20203;-89
2021/12/23 04:05:43;;;;;;;35.63;23.17;;;-2.00;92.30;;;;;;5015719;28;20183;-89
2021/12/23 04:08:09;;;;;;;39.10;24.03;;;-2.00;92.30;;;;;;5016086;28;20236;-89
2021/12/23 04:10:36;;;;;;;38.10;22.67;;;-2.00;92.20;;;;;;5016641;28;20186;-89
2021/12/23 04:13:02;;;;;;;35.90;21.67;;;-2.00;92.30;;;;;;5015675;28;20222;-89
2021/12/23 04:15:27;;;;;;;37.23;22.90;;;-2.00;92.30;;;;;;5016380;28;20173;-90
2021/12/23 04:17:53;;;;;;;36.97;22.57;;;-2.00;92.40;;;;;;5015682;28;20227;-89
2021/12/23 04:20:22;;;;;;;35.37;19.63;;;-2.00;92.40;;;;;;5015850;28;20231;-89
2021/12/23 04:22:53;;;;;;;36.77;22.30;;;-2.00;92.40;;;;;;5015548;28;20274;-89
2021/12/23 04:25:21;;;;;;;38.27;22.17;;;-2.00;92.30;;;;;;5015546;28;20188;-89
2021/12/23 04:27:50;;;;;;;39.40;21.83;;;-2.00;92.30;;;;;;5033286;28;20659;-89
2021/12/23 04:30:17;;;;;;;33.63;22.27;;;-2.00;92.30;;;;;;5015630;28;20208;-89
2021/12/23 04:32:44;;;;;;;36.73;21.50;;;-2.00;92.30;;;;;;5015528;28;20185;-89
2021/12/23 04:35:10;;;;;;;34.57;21.50;;;-2.00;92.30;;;;;;5015374;28;20694;-89
2021/12/23 04:37:35;;;;;;;35.47;24.10;;;-2.00;92.30;;;;;;5015488;28;20186;-89
2021/12/23 04:40:02;;;;;;;33.10;22.17;;;-1.90;92.30;;;;;;5015547;28;20277;-90
2021/12/23 04:42:28;;;;;;;41.17;25.67;;;-1.90;92.30;;;;;;5015306;28;20205;-90
2021/12/23 04:44:54;;;;;;;35.70;22.07;;;-1.90;92.30;;;;;;5015762;28;20198;-90
2021/12/23 04:47:19;;;;;;;35.00;22.70;;;-1.90;92.30;;;;;;5015385;28;20180;-90
2021/12/23 04:49:45;;;;;;;39.57;22.57;;;-1.80;92.20;;;;;;5015641;28;20198;-90
2021/12/23 04:52:10;;;;;;;38.70;23.57;;;-1.80;92.30;;;;;;5015348;28;20186;-90
2021/12/23 04:54:36;;;;;;;37.10;24.57;;;-1.80;92.20;;;;;;5015307;28;20294;-90
2021/12/23 04:57:02;;;;;;;38.40;24.10;;;-1.90;92.00;;;;;;5015340;28;20624;-89
2021/12/23 04:59:27;;;;;;;40.73;23.43;;;-1.90;92.10;;;;;;5015270;28;20180;-90
2021/12/23 05:01:54;;;;;;;43.60;24.37;;;-1.80;92.10;;;;;;5015180;28;20179;-89
2021/12/23 05:04:19;;;;;;;33.40;20.83;;;-1.80;92.10;;;;;;5015285;28;20204;-89
2021/12/23 05:06:45;;;;;;;38.87;23.27;;;-1.90;92.00;;;;;;5015221;28;20183;-90
2021/12/23 05:09:11;;;;;;;34.00;21.97;;;-1.90;92.00;;;;;;5015103;28;20206;-90
2021/12/23 05:11:36;;;;;;;35.87;22.37;;;-1.80;92.00;;;;;;5015400;28;20188;-90
2021/12/23 05:14:02;;;;;;;39.40;21.80;;;-1.70;92.10;;;;;;5014996;28;20203;-90
2021/12/23 05:16:27;;;;;;;39.60;22.10;;;-1.80;92.10;;;;;;5016997;28;20179;-90
2021/12/23 05:18:53;;;;;;;37.03;21.77;;;-1.80;92.00;;;;;;5036831;28;20183;-90
2021/12/23 05:21:19;;;;;;;36.03;21.97;;;-1.80;92.00;;;;;;5018766;28;20193;-90
2021/12/23 05:23:44;;;;;;;37.53;22.53;;;-1.80;92.00;;;;;;5018642;28;20201;-89
2021/12/23 05:26:10;;;;;;;36.20;22.57;;;-1.80;92.00;;;;;;5019097;28;20183;-90
2021/12/23 05:28:36;;;;;;;36.77;22.17;;;-1.80;92.00;;;;;;5018642;28;20211;-90
2021/12/23 05:31:03;;;;;;;36.93;21.27;;;-1.80;92.00;;;;;;5036585;28;20227;-90
2021/12/23 05:33:29;;;;;;;38.90;23.67;;;-1.80;92.00;;;;;;5018719;28;20197;-90
2021/12/23 05:35:55;;;;;;;33.93;22.17;;;-1.70;92.00;;;;;;5018490;28;20190;-90
2021/12/23 05:38:22;;;;;;;34.93;21.67;;;-1.70;92.00;;;;;;5018432;28;20208;-90
2021/12/23 05:40:48;;;;;;;34.73;22.93;;;-1.70;92.00;;;;;;5018366;28;20555;-89
2021/12/23 05:43:13;;;;;;;35.63;21.80;;;-1.60;92.00;;;;;;5018579;28;20199;-90
2021/12/23 05:45:39;;;;;;;38.20;20.97;;;-1.60;91.90;;;;;;5018380;28;20179;-89
2021/12/23 05:48:05;;;;;;;36.67;22.53;;;-1.60;91.90;;;;;;5036204;28;20176;-89
2021/12/23 05:50:31;;;;;;;39.67;22.50;;;-1.60;91.80;;;;;;5019186;28;20233;-90
2021/12/23 05:52:57;;;;;;;36.23;22.07;;;-1.60;91.70;;;;;;5018175;28;20179;-90
2021/12/23 05:55:23;;;;;;;33.50;21.70;;;-1.60;91.80;;;;;;5018193;28;20654;-90
2021/12/23 05:57:49;;;;;;;33.27;21.33;;;-1.60;91.80;;;;;;5018104;28;20233;-89
2021/12/23 06:00:25;;;;;;;32.17;21.10;;;-1.60;91.80;;;;;;5018033;28;20229;-89
2021/12/23 06:02:51;;;;;;;35.27;19.63;;;-1.60;91.80;;;;;;5018013;28;20645;-89
2021/12/23 06:05:18;;;;;;;33.03;22.40;;;-1.60;91.80;;;;;;5017978;28;20216;-89
2021/12/23 06:07:44;;;;;;;37.57;23.87;;;-1.60;91.80;;;;;;5017808;28;20186;-90
2021/12/23 06:10:10;;;;;;;33.30;21.33;;;-1.60;91.70;;;;;;5017845;28;20205;-90
2021/12/23 06:12:36;;;;;;;39.87;22.50;;;-1.50;91.80;;;;;;5017737;28;20177;-90
2021/12/23 06:15:03;;;;;;;35.37;22.27;;;-1.60;91.70;;;;;;5017680;28;20206;-90
2021/12/23 06:17:29;;;;;;;34.90;21.60;;;-1.60;91.70;;;;;;5018050;28;20180;-90
2021/12/23 06:19:54;;;;;;;36.03;23.50;;;-1.50;91.70;;;;;;5017943;28;20547;-90
2021/12/23 06:22:20;;;;;;;36.13;21.93;;;-1.60;91.70;;;;;;5017551;28;20637;-89
2021/12/23 06:24:47;;;;;;;36.03;23.20;;;-1.60;91.70;;;;;;5017726;28;20253;-90
2021/12/23 06:27:15;;;;;;;34.70;21.67;;;-1.50;91.80;;;;;;5017274;28;20188;-90
2021/12/23 06:29:41;;;;;;;37.60;22.77;;;-1.50;91.80;;;;;;5017396;28;20306;-90
2021/12/23 06:32:07;;;;;;;33.37;21.60;;;-1.50;91.80;;;;;;5017801;28;20271;-90
2021/12/23 06:34:33;;;;;;;37.03;21.40;;;-1.40;91.80;;;;;;5017553;28;20291;-90
2021/12/23 06:36:58;;;;;;;31.90;20.47;;;-1.40;91.90;;;;;;5017241;28;20263;-90
2021/12/23 06:39:24;;;;;;;34.67;21.57;;;-1.40;91.90;;;;;;5017337;28;20641;-89
2021/12/23 06:41:50;;;;;;;37.20;22.73;;;-1.40;91.90;;;;;;5017269;28;20192;-89
2021/12/23 06:44:15;;;;;;;37.07;23.97;;;-1.40;91.90;;;;;;5017358;28;20234;-90
2021/12/23 06:46:41;;;;;;;35.73;20.87;;;-1.40;91.90;;;;;;5017236;28;20204;-90
2021/12/23 06:49:07;;;;;;;31.60;21.93;;;-1.40;91.90;;;;;;5017150;28;20695;-90
2021/12/23 06:51:33;;;;;;;36.93;21.07;;;-1.40;91.80;;;;;;5017110;28;20224;-90
2021/12/23 06:54:00;;;;;;;36.53;21.73;;;-1.50;91.80;;;;;;5017019;28;20610;-90
2021/12/23 06:56:26;;;;;;;40.43;23.50;;;-1.50;91.80;;;;;;5017023;28;20614;-90
2021/12/23 06:58:52;;;;;;;33.47;21.30;;;-1.50;91.80;;;;;;5017323;28;20269;-90
2021/12/23 07:01:20;;;;;;;30.40;19.67;;;-1.50;91.90;;;;;;5017009;28;20712;-90
2021/12/23 07:06:22;;;;;;;26.70;16.87;;;-1.40;91.70;;;;;;5034858;28;20166;-89
2021/12/23 07:08:48;;;;;;;31.63;18.93;;;-1.40;91.70;;;;;;5016779;28;20194;-89
2021/12/23 07:11:14;;;;;;;30.53;17.87;;;-1.40;91.70;;;;;;5016652;28;20182;-89
2021/12/23 07:13:39;;;;;;;29.73;18.23;;;-1.40;91.90;;;;;;5016519;28;20234;-89
2021/12/23 07:16:05;;;;;;;22.83;14.97;;;-1.40;91.90;;;;;;5016741;28;20602;-89
2021/12/23 07:18:31;;;;;;;30.20;17.27;;;-1.30;92.00;;;;;;5016879;28;20200;-89
2021/12/23 07:20:56;;;;;;;32.90;20.13;;;-1.30;91.90;;;;;;5016524;28;20174;-89
2021/12/23 07:23:22;;;;;;;30.20;17.37;;;-1.30;91.90;;;;;;5016725;28;20202;-88
2021/12/23 07:25:48;;;;;;;30.83;17.17;;;-1.40;91.60;;;;;;5016373;28;20179;-89
2021/12/23 07:28:13;;;;;;;38.47;19.37;;;-1.50;91.60;;;;;;5016346;28;20177;-89
2021/12/23 07:30:39;;;;;;;37.07;21.83;;;-1.50;91.80;;;;;;5016418;28;20173;-89
2021/12/23 07:33:05;;;;;;;33.07;19.63;;;-1.60;91.90;;;;;;5016289;28;20577;-89
2021/12/23 07:35:31;;;;;;;33.40;19.87;;;-1.60;91.90;;;;;;5016352;28;20261;-89
2021/12/23 07:38:00;;;;;;;33.17;21.73;;;-1.60;92.10;;;;;;5034127;28;20178;-89
2021/12/23 07:40:27;;;;;;;36.50;22.27;;;-1.60;92.10;;;;;;5015995;28;20255;-89
2021/12/23 07:42:58;;;;;;;40.80;23.63;;;-1.60;92.20;;;;;;5016151;28;20179;-90
2021/12/23 07:45:29;;;;;;;39.17;23.33;;;-1.60;92.20;;;;;;5016684;28;20208;-89
2021/12/23 07:47:55;;;;;;;36.03;24.10;;;-1.60;92.20;;;;;;5016370;28;20257;-89
2021/12/23 07:50:22;;;;;;;36.43;23.80;;;-1.60;92.20;;;;;;5015888;28;20682;-90
2021/12/23 07:52:48;;;;;;;42.47;25.03;;;-1.60;92.30;;;;;;5033968;28;20183;-90
2021/12/23 07:55:14;;;;;;;38.23;24.53;;;-1.60;92.30;;;;;;5016054;28;20210;-90
2021/12/23 07:57:40;;;;;;;36.27;22.97;;;-1.50;92.30;;;;;;5015860;28;20170;-90
2021/12/23 08:00:06;;;;;;;41.43;25.17;;;-1.50;92.30;;;;;;5015956;28;20642;-90
2021/12/23 08:02:32;;;;;;;38.97;24.63;;;-1.50;92.30;;;;;;5015870;28;20635;-89
2021/12/23 08:04:58;;;;;;;36.70;24.50;;;-1.50;92.30;;;;;;5015808;28;20231;-89
2021/12/23 08:07:24;;;;;;;37.97;24.90;;;-1.60;92.40;;;;;;5015938;28;20210;-90
2021/12/23 08:09:49;;;;;;;40.70;24.97;;;-1.50;92.40;;;;;;5015986;28;20243;-90
2021/12/23 08:12:15;;;;;;;39.77;23.97;;;-1.50;92.50;;;;;;5016482;28;20179;-90
2021/12/23 08:14:40;;;;;;;38.10;24.10;;;-1.40;92.60;;;;;;5015710;28;20188;-90
2021/12/23 08:17:06;;;;;;;36.27;23.87;;;-1.30;92.50;;;;;;5015719;28;20571;-90
2021/12/23 08:19:32;;;;;;;33.23;23.67;;;-1.40;92.50;;;;;;5015627;28;20555;-90
2021/12/23 08:21:57;;;;;;;39.67;25.20;;;-1.30;92.40;;;;;;5016053;28;20209;-90
2021/12/23 08:24:23;;;;;;;36.07;23.53;;;-1.30;92.40;;;;;;5015568;28;20247;-90
2021/12/23 08:26:53;;;;;;;36.97;24.30;;;-1.30;92.40;;;;;;5016720;28;20237;-90
2021/12/23 08:29:20;;;;;;;34.63;23.33;;;-1.30;92.40;;;;;;5015664;28;20206;-90
2021/12/23 08:31:53;;;;;;;36.60;23.73;;;-1.30;92.30;;;;;;5033232;28;20171;-90
2021/12/23 08:34:25;;;;;;;41.10;24.43;;;-1.40;92.40;;;;;;5015596;28;20200;-90
2021/12/23 08:36:52;;;;;;;34.87;23.37;;;-1.40;92.40;;;;;;5015464;28;20191;-90
2021/12/23 08:39:19;;;;;;;37.50;24.57;;;-1.30;92.50;;;;;;5016586;28;20509;-90
2021/12/23 08:41:45;;;;;;;38.50;24.43;;;-1.20;92.50;;;;;;5015485;28;20180;-90
2021/12/23 08:44:11;;;;;;;35.13;23.83;;;-1.30;92.40;;;;;;5015354;28;20205;-90
2021/12/23 08:46:37;;;;;;;35.33;24.10;;;-1.20;92.40;;;;;;5015679;28;20180;-90
2021/12/23 08:49:05;;;;;;;37.23;23.83;;;-1.10;92.50;;;;;;5015312;28;20204;-90
2021/12/23 08:51:33;;;;;;;31.63;21.73;;;-1.10;92.40;;;;;;5018048;28;20176;-90
2021/12/23 08:53:59;;;;;;;36.03;22.40;;;-1.10;92.40;;;;;;5019345;28;20208;-90
2021/12/23 08:56:24;;;;;;;40.13;24.47;;;-1.10;92.40;;;;;;5019279;28;20267;-90
2021/12/23 08:58:50;;;;;;;38.27;23.33;;;-1.10;92.30;;;;;;5019207;28;20525;-90
2021/12/23 09:01:16;;;;;;;32.23;22.97;;;-1.10;92.30;;;;;;5020064;28;20185;-90
2021/12/23 09:03:42;;;;;;;33.10;22.63;;;-1.10;92.40;;;;;;5019075;28;20201;-90
2021/12/23 09:06:07;;;;;;;34.47;25.47;;;-1.10;92.40;;;;;;5019993;28;20181;-91
2021/12/23 09:08:33;;;;;;;37.03;24.77;;;-1.10;92.40;;;;;;5019087;28;20205;-90
2021/12/23 09:11:00;;;;;;;36.37;23.50;;;-1.10;92.40;;;;;;5019042;28;20173;-90
2021/12/23 09:13:26;;;;;;;34.93;23.90;;;-1.00;92.40;;;;;;5018964;28;20207;-90
2021/12/23 09:15:52;;;;;;;35.63;24.10;;;-1.00;92.40;;;;;;5018934;28;20235;-91
2021/12/23 09:18:21;;;;;;;34.60;23.77;;;-1.00;92.30;;;;;;5019003;28;20270;-90
2021/12/23 09:20:49;;;;;;;35.87;24.10;;;-1.00;92.30;;;;;;5019085;28;20592;-91
2021/12/23 09:23:15;;;;;;;39.00;23.93;;;-0.90;92.30;;;;;;5019024;28;20193;-91
2021/12/23 09:25:41;;;;;;;39.27;23.33;;;-0.90;92.10;;;;;;5018873;28;20226;-91
2021/12/23 09:33:49;;;;;;;34.03;22.33;;;-0.90;92.20;;;;;;5036534;28;20195;-91
2021/12/23 09:36:15;;;;;;;40.67;23.50;;;-0.90;92.30;;;;;;5018575;28;20180;-90
2021/12/23 09:38:41;;;;;;;38.37;24.13;;;-0.90;92.30;;;;;;5018477;28;20214;-91
2021/12/23 09:41:18;;;;;;;37.33;25.73;;;-0.90;92.30;;;;;;5018493;28;20196;-91
2021/12/23 09:43:44;;;;;;;38.90;24.30;;;-0.80;92.30;;;;;;5018263;28;20210;-91
2021/12/23 09:46:13;;;;;;;38.43;25.73;;;-0.80;92.30;;;;;;5018239;28;20668;-91
2021/12/23 09:48:42;;;;;;;37.97;25.83;;;-0.80;92.20;;;;;;5018225;28;20287;-90
2021/12/23 09:51:09;;;;;;;38.33;24.40;;;-0.70;92.30;;;;;;5018259;28;20177;-91
2021/12/23 09:53:37;;;;;;;39.60;24.87;;;-0.70;92.00;;;;;;5018258;28;20208;-91
2021/12/23 09:56:04;;;;;;;36.67;24.70;;;-0.70;91.80;;;;;;5018988;28;20280;-91
2021/12/23 09:58:30;;;;;;;36.67;26.40;;;-0.70;91.90;;;;;;5018066;28;20188;-91
2021/12/23 10:00:55;;;;;;;41.27;24.73;;;-0.60;91.80;;;;;;5018433;28;20198;-91
2021/12/23 10:03:24;;;;;;;38.37;26.27;;;-0.60;91.90;;;;;;5017735;28;20675;-91
2021/12/23 10:05:50;;;;;;;36.53;26.20;;;-0.50;91.80;;;;;;5018975;28;20176;-90
2021/12/23 10:08:16;;;;;;;41.17;25.13;;;-0.50;91.70;;;;;;5018909;28;20641;-91
2021/12/23 10:10:53;;;;;;;38.23;24.93;;;-0.50;91.60;;;;;;5019534;28;20185;-90
2021/12/23 10:30:35;;;;;;;34.63;24.00;;;-0.50;91.70;;;;;;5035867;28;20196;-91
2021/12/23 10:38:31;;;;;;;34.57;21.83;;;-0.50;91.50;;;;;;5035813;28;20191;-91
2021/12/23 10:41:09;;;;;;;32.53;19.67;;;-0.40;91.40;;;;;;5035267;28;20216;-91
2021/12/23 10:43:39;;;;;;;37.93;24.53;;;-0.40;91.30;;;;;;5017468;28;20204;-91
2021/12/23 10:46:17;;;;;;;29.00;17.67;;;-0.40;91.20;;;;;;5017374;28;20177;-91
2021/12/23 10:49:08;;;;;;;33.33;22.70;;;-0.30;91.20;;;;;;5017222;28;20764;-91
2021/12/23 10:52:01;;;;;;;30.87;20.37;;;-0.40;90.90;;;;;;5017938;28;20544;-91
2021/12/23 11:00:33;;;;;;;32.90;21.30;;;-0.30;91.20;;;;;;5035322;28;20167;-91
2021/12/23 11:03:39;;;;;;;33.80;24.57;;;-0.20;90.90;;;;;;5017690;28;20629;-90
2021/12/23 11:06:28;;;;;;;35.47;21.50;;;-0.30;90.90;;;;;;5017253;28;20177;-91
2021/12/23 11:42:11;;;;;;;35.37;24.80;;;-0.10;91.30;;;;;;5034417;28;20728;-91
2021/12/23 11:44:37;;;;;;;40.33;25.73;;;-0.10;91.40;;;;;;5033925;28;20735;-90
2021/12/23 11:47:10;;;;;;;35.67;25.50;;;-0.10;91.30;;;;;;5016161;28;20629;-90
2021/12/23 11:49:38;;;;;;;34.57;25.30;;;-0.10;91.30;;;;;;5016055;28;20283;-90
2021/12/23 11:52:05;;;;;;;37.33;24.80;;;-0.10;91.20;;;;;;5016111;28;20181;-90
2021/12/23 11:54:42;;;;;;;35.87;25.97;;;-0.10;91.20;;;;;;5016034;28;20676;-90
2021/12/23 11:57:14;;;;;;;38.27;25.20;;;0.00;91.20;;;;;;5016245;28;20162;-90
2021/12/23 11:59:42;;;;;;;40.30;25.73;;;0.00;91.30;;;;;;5015961;28;20263;-90
2021/12/23 12:02:16;;;;;;;35.23;24.77;;;0.00;91.20;;;;;;5033679;28;20173;-90
2021/12/23 12:04:42;;;;;;;35.37;24.70;;;0.00;91.20;;;;;;5016020;28;20252;-91
2021/12/23 12:07:17;;;;;;;37.63;25.57;;;0.00;91.00;;;;;;5016099;28;20189;-91
2021/12/23 12:09:58;;;;;;;31.90;23.33;;;0.00;91.00;;;;;;5015995;28;20197;-91
2021/12/23 12:12:24;;;;;;;34.50;24.07;;;0.00;91.00;;;;;;5016149;28;20604;-91
2021/12/23 12:14:54;;;;;;;41.53;25.73;;;0.00;91.00;;;;;;5016349;28;20196;-92
2021/12/23 12:17:25;;;;;;;40.00;25.77;;;0.00;91.10;;;;;;5016368;28;20181;-92
2021/12/23 12:19:51;;;;;;;35.07;25.10;;;0.00;91.00;;;;;;5016089;28;20271;-92
2021/12/23 12:22:45;;;;;;;40.10;25.03;;;0.00;91.00;;;;;;5016267;28;20211;-91
2021/12/23 12:25:23;;;;;;;40.60;26.33;;;0.10;91.00;;;;;;5017482;28;20201;-91
2021/12/23 12:27:54;;;;;;;40.27;26.50;;;0.00;90.60;;;;;;5033686;28;20625;-92
2021/12/23 12:30:34;;;;;;;38.63;24.17;;;0.00;90.50;;;;;;5015840;28;20563;-92
2021/12/23 12:33:25;;;;;;;40.87;26.50;;;0.00;90.50;;;;;;5016180;28;20160;-90
2021/12/23 12:36:00;;;;;;;37.17;23.10;;;0.00;90.50;;;;;;5002448;28;20189;-90
2021/12/23 12:38:28;;;;;;;36.50;25.57;;;0.00;90.40;;;;;;5015494;28;20264;-90
2021/12/23 12:40:59;;;;;;;30.43;18.67;;;0.10;90.20;;;;;;5015550;28;20173;-89
2021/12/23 12:43:42;;;;;;;33.10;22.93;;;0.10;90.00;;;;;;5015336;28;20542;-88
2021/12/23 12:46:09;;;;;;;21.90;12.83;;;0.10;89.90;;;;;;5015398;28;20165;-89
2021/12/23 12:49:09;;;;;;;30.43;18.87;;;0.10;89.90;;;;;;5033053;28;20180;-89
2021/12/23 12:51:39;;;;;;;36.57;23.47;;;0.10;89.40;;;;;;5000970;28;20224;-90
2021/12/23 12:54:14;;;;;;;33.97;23.97;;;0.10;89.60;;;;;;5015611;28;20676;-91
2021/12/23 12:56:49;;;;;;;30.90;17.87;;;0.10;89.80;;;;;;5016348;28;20174;-90
2021/12/23 12:59:16;;;;;;;22.27;14.87;;;0.10;90.10;;;;;;5016574;28;20168;-90
2021/12/23 13:01:48;;;;;;;33.77;23.87;;;0.00;90.40;;;;;;5015366;28;20190;-90
2021/12/23 13:04:44;;;;;;;23.03;16.03;;;0.00;90.70;;;;;;5015751;28;20220;-90
2021/12/23 13:07:18;;;;;;;39.53;24.07;;;0.00;91.20;;;;;;5016079;28;20178;-91
2021/12/23 13:10:06;;;;;;;34.70;22.23;;;0.00;91.70;;;;;;5016504;28;20299;-91
2021/12/23 13:12:44;;;;;;;38.27;25.70;;;-0.10;92.10;;;;;;5015082;28;20235;-91
2021/12/23 13:15:22;;;;;;;40.03;25.07;;;-0.10;92.40;;;;;;5015679;28;20199;-91
2021/12/23 13:18:18;;;;;;;37.47;24.73;;;-0.10;92.60;;;;;;5015882;28;20248;-91
2021/12/23 13:20:59;;;;;;;42.40;27.07;;;-0.10;92.70;;;;;;5005150;28;20242;-91
2021/12/23 13:23:37;;;;;;;44.17;26.60;;;-0.10;92.90;;;;;;5015586;28;20197;-90
2021/12/23 13:26:10;;;;;;;41.37;22.60;;;-0.10;93.00;;;;;;5015470;28;20260;-91
2021/12/23 13:28:43;;;;;;;41.00;25.33;;;-0.10;93.00;;;;;;5015944;28;20172;-91
2021/12/23 13:31:21;;;;;;;41.43;27.80;;;-0.10;93.00;;;;;;5015662;28;20164;-91
2021/12/23 13:33:53;;;;;;;45.10;29.77;;;0.00;93.00;;;;;;5032682;28;20199;-92
2021/12/23 13:36:29;;;;;;;46.33;27.23;;;0.00;93.00;;;;;;5015178;28;20179;-90
2021/12/23 13:39:03;;;;;;;47.93;30.67;;;0.00;92.80;;;;;;5036476;28;20172;-89
2021/12/23 13:41:36;;;;;;;46.17;28.90;;;0.00;92.50;;;;;;5036534;28;20168;-91
2021/12/23 13:44:22;;;;;;;49.30;30.03;;;0.00;92.40;;;;;;5018463;28;20196;-91
2021/12/23 13:47:10;;;;;;;45.57;29.30;;;0.00;92.50;;;;;;5018431;28;20188;-90
2021/12/23 13:49:43;;;;;;;45.33;28.67;;;0.00;92.40;;;;;;5018320;28;20660;-91
2021/12/23 13:52:17;;;;;;;42.50;26.20;;;0.00;92.50;;;;;;5018299;28;20672;-91